createdAt,value
2018-08-13T00:00:04.000Z,0.00
2018-08-13T00:01:04.603Z,0.00
2018-08-13T00:02:05.211Z,0.00
2018-08-13T00:03:05.820Z,0.00
2018-08-13T00:04:06.431Z,0.00
2018-08-13T00:05:07.041Z,0.00
2018-08-13T00:06:07.654Z,0.00
2018-08-13T00:07:08.266Z,0.00
2018-08-13T00:08:08.905Z,0.00
2018-08-13T00:09:09.508Z,0.00
2018-08-13T00:10:10.120Z,0.00
2018-08-13T00:11:10.733Z,0.00
2018-08-13T00:12:11.347Z,0.00
2018-08-13T00:13:11.952Z,0.00
2018-08-13T00:14:12.568Z,0.00
2018-08-13T00:15:13.175Z,0.00
2018-08-13T00:16:13.787Z,0.00
2018-08-13T00:17:14.400Z,0.00
2018-08-13T00:18:15.012Z,0.00
2018-08-13T00:19:15.618Z,0.00
2018-08-13T00:20:16.228Z,0.00
2018-08-13T00:21:16.850Z,0.00
2018-08-13T00:22:17.464Z,0.00
2018-08-13T00:23:18.076Z,0.00
2018-08-13T00:24:18.687Z,0.00
2018-08-13T00:25:19.296Z,0.00
2018-08-13T00:26:19.908Z,0.00
2018-08-13T00:27:20.515Z,0.00
2018-08-13T00:28:21.138Z,0.00
2018-08-13T00:29:21.764Z,0.00
2018-08-13T00:30:22.361Z,0.00
2018-08-13T00:31:22.980Z,0.00
2018-08-13T00:32:23.581Z,0.00
2018-08-13T00:33:24.190Z,0.00
2018-08-13T00:34:24.800Z,0.00
2018-08-13T00:35:25.408Z,0.00
2018-08-13T00:36:26.023Z,0.00
2018-08-13T00:37:26.632Z,0.00
2018-08-13T00:38:27.241Z,0.00
2018-08-13T00:39:27.852Z,0.00
2018-08-13T00:40:28.463Z,0.00
2018-08-13T00:41:29.094Z,0.00
2018-08-13T00:42:29.692Z,0.00
2018-08-13T00:43:30.297Z,0.00
2018-08-13T00:44:30.912Z,0.00
2018-08-13T00:45:31.522Z,0.00
2018-08-13T00:46:32.137Z,0.00
2018-08-13T00:47:32.752Z,0.00
2018-08-13T00:48:33.370Z,0.00
2018-08-13T00:49:33.971Z,0.00
2018-08-13T00:50:34.576Z,0.00
2018-08-13T00:51:35.197Z,0.00
2018-08-13T00:52:35.805Z,0.00
2018-08-13T00:53:36.414Z,0.00
2018-08-13T00:54:37.019Z,0.00
2018-08-13T00:55:37.633Z,0.00
2018-08-13T00:56:38.255Z,0.00
2018-08-13T00:57:38.868Z,0.00
2018-08-13T00:58:39.478Z,0.00
2018-08-13T00:59:40.087Z,0.00
2018-08-13T00:59:41.195Z,0.00
2018-08-13T01:01:40.712Z,0.00
2018-08-13T01:02:41.322Z,0.00
2018-08-13T01:03:41.959Z,0.00
2018-08-13T01:04:42.585Z,0.00
2018-08-13T01:05:43.236Z,0.00
2018-08-13T01:06:43.817Z,0.00
2018-08-13T01:07:44.426Z,0.00
2018-08-13T01:08:45.036Z,0.00
2018-08-13T01:09:45.652Z,0.00
2018-08-13T01:10:46.259Z,0.00
2018-08-13T01:11:46.869Z,0.00
2018-08-13T01:12:47.486Z,0.00
2018-08-13T01:13:48.092Z,0.00
2018-08-13T01:14:48.705Z,0.00
2018-08-13T01:15:49.312Z,0.00
2018-08-13T01:16:49.931Z,0.00
2018-08-13T01:17:50.528Z,0.00
2018-08-13T01:18:51.156Z,0.00
2018-08-13T01:19:51.751Z,0.00
2018-08-13T01:20:52.359Z,0.00
2018-08-13T01:21:52.970Z,0.00
2018-08-13T01:22:53.585Z,0.00
2018-08-13T01:23:54.195Z,0.00
2018-08-13T01:24:54.803Z,0.00
2018-08-13T01:25:55.412Z,0.00
2018-08-13T01:26:56.024Z,0.00
2018-08-13T01:27:56.638Z,0.00
2018-08-13T01:28:57.246Z,0.00
2018-08-13T01:29:57.857Z,0.00
2018-08-13T01:30:58.465Z,0.00
2018-08-13T01:31:59.076Z,0.00
2018-08-13T01:32:59.695Z,0.00
2018-08-13T01:34:00.318Z,0.00
2018-08-13T01:35:00.923Z,0.00
2018-08-13T01:36:01.532Z,0.00
2018-08-13T01:37:02.141Z,0.00
2018-08-13T01:38:02.748Z,0.00
2018-08-13T01:39:03.358Z,0.00
2018-08-13T01:40:03.969Z,0.00
2018-08-13T01:41:04.576Z,0.00
2018-08-13T01:42:05.191Z,0.00
2018-08-13T01:43:05.818Z,0.00
2018-08-13T01:44:06.425Z,0.00
2018-08-13T01:45:07.036Z,0.00
2018-08-13T01:46:07.653Z,0.00
2018-08-13T01:47:08.256Z,0.00
2018-08-13T01:48:08.866Z,0.00
2018-08-13T01:49:09.483Z,0.00
2018-08-13T01:50:10.096Z,0.00
2018-08-13T01:51:10.715Z,0.00
2018-08-13T01:52:11.329Z,0.00
2018-08-13T01:53:11.937Z,0.00
2018-08-13T01:54:12.549Z,0.00
2018-08-13T01:55:13.162Z,0.00
2018-08-13T01:56:13.771Z,0.00
2018-08-13T01:57:14.384Z,0.00
2018-08-13T01:58:14.997Z,0.00
2018-08-13T01:59:15.615Z,0.00
2018-08-13T02:00:16.223Z,0.00
2018-08-13T02:01:16.885Z,0.00
2018-08-13T02:02:17.445Z,0.00
2018-08-13T02:03:18.058Z,0.00
2018-08-13T02:04:18.672Z,0.00
2018-08-13T02:05:19.285Z,0.00
2018-08-13T02:06:19.892Z,0.00
2018-08-13T02:07:20.508Z,0.00
2018-08-13T02:08:21.129Z,0.00
2018-08-13T02:09:21.790Z,0.00
2018-08-13T02:10:22.356Z,0.00
2018-08-13T02:11:22.971Z,0.00
2018-08-13T02:11:24.073Z,0.00
2018-08-13T02:13:23.611Z,0.00
2018-08-13T02:14:24.205Z,0.00
2018-08-13T02:15:24.833Z,0.00
2018-08-13T02:16:25.436Z,0.00
2018-08-13T02:17:26.053Z,0.00
2018-08-13T02:18:26.669Z,0.00
2018-08-13T02:19:27.270Z,0.00
2018-08-13T02:20:27.886Z,0.00
2018-08-13T02:21:28.497Z,0.00
2018-08-13T02:22:29.106Z,0.00
2018-08-13T02:23:29.714Z,0.00
2018-08-13T02:24:30.330Z,0.00
2018-08-13T02:25:30.932Z,0.00
2018-08-13T02:26:31.547Z,0.00
2018-08-13T02:27:32.150Z,0.00
2018-08-13T02:28:32.771Z,0.00
2018-08-13T02:29:33.382Z,0.00
2018-08-13T02:30:33.994Z,0.00
2018-08-13T02:31:34.606Z,0.00
2018-08-13T02:32:35.217Z,0.00
2018-08-13T02:33:35.832Z,0.00
2018-08-13T02:34:36.450Z,0.00
2018-08-13T02:35:37.056Z,0.00
2018-08-13T02:36:37.670Z,0.00
2018-08-13T02:37:38.286Z,0.00
2018-08-13T02:38:38.892Z,0.00
2018-08-13T02:39:39.508Z,0.00
2018-08-13T02:40:40.116Z,0.00
2018-08-13T02:41:40.730Z,0.00
2018-08-13T02:42:41.343Z,0.00
2018-08-13T02:43:41.957Z,0.00
2018-08-13T02:44:42.559Z,0.00
2018-08-13T02:45:43.172Z,0.00
2018-08-13T02:46:43.778Z,0.00
2018-08-13T02:47:44.406Z,0.00
2018-08-13T02:48:45.004Z,0.00
2018-08-13T02:49:45.612Z,0.00
2018-08-13T02:50:46.231Z,0.00
2018-08-13T02:51:46.828Z,0.00
2018-08-13T02:52:47.450Z,0.00
2018-08-13T02:53:48.071Z,0.00
2018-08-13T02:54:48.682Z,0.00
2018-08-13T02:55:49.295Z,0.00
2018-08-13T02:56:49.904Z,0.00
2018-08-13T02:57:50.514Z,0.00
2018-08-13T02:58:51.127Z,0.00
2018-08-13T02:59:51.739Z,0.00
2018-08-13T03:00:52.347Z,0.00
2018-08-13T03:01:52.959Z,0.00
2018-08-13T03:02:53.566Z,0.00
2018-08-13T03:03:54.215Z,0.00
2018-08-13T03:04:54.789Z,0.00
2018-08-13T03:05:55.397Z,0.00
2018-08-13T03:06:56.006Z,0.00
2018-08-13T03:07:56.617Z,0.00
2018-08-13T03:08:57.233Z,0.00
2018-08-13T03:09:57.842Z,0.00
2018-08-13T03:10:58.455Z,0.00
2018-08-13T03:11:59.062Z,0.00
2018-08-13T03:12:59.673Z,0.00
2018-08-13T03:14:00.301Z,0.00
2018-08-13T03:15:00.909Z,0.00
2018-08-13T03:16:01.523Z,0.00
2018-08-13T03:17:02.140Z,0.00
2018-08-13T03:18:02.750Z,0.00
2018-08-13T03:19:03.357Z,0.00
2018-08-13T03:20:03.973Z,0.00
2018-08-13T03:21:04.585Z,0.00
2018-08-13T03:22:05.203Z,0.00
2018-08-13T03:23:05.812Z,0.00
2018-08-13T03:23:06.925Z,0.00
2018-08-13T03:25:06.439Z,0.00
2018-08-13T03:26:07.053Z,0.00
2018-08-13T03:27:07.661Z,0.00
2018-08-13T03:28:08.269Z,0.00
2018-08-13T03:29:08.882Z,0.00
2018-08-13T03:30:09.491Z,0.00
2018-08-13T03:31:10.100Z,0.00
2018-08-13T03:32:10.712Z,0.00
2018-08-13T03:33:11.326Z,0.00
2018-08-13T03:34:11.936Z,0.00
2018-08-13T03:35:12.549Z,0.00
2018-08-13T03:36:13.165Z,0.00
2018-08-13T03:37:13.779Z,0.00
2018-08-13T03:38:14.390Z,0.00
2018-08-13T03:39:15.005Z,0.00
2018-08-13T03:40:15.614Z,0.00
2018-08-13T03:41:16.225Z,0.00
2018-08-13T03:42:16.836Z,0.00
2018-08-13T03:43:17.446Z,0.00
2018-08-13T03:44:18.057Z,0.00
2018-08-13T03:45:18.664Z,0.00
2018-08-13T03:46:19.291Z,0.00
2018-08-13T03:47:19.902Z,0.00
2018-08-13T03:48:20.509Z,0.00
2018-08-13T03:49:21.123Z,0.00
2018-08-13T03:50:21.741Z,0.00
2018-08-13T03:51:22.432Z,0.00
2018-08-13T03:52:23.038Z,0.00
2018-08-13T03:53:23.644Z,0.00
2018-08-13T03:54:24.589Z,0.00
2018-08-13T03:55:25.227Z,0.00
2018-08-13T03:56:25.814Z,0.00
2018-08-13T03:57:26.437Z,0.00
2018-08-13T03:58:27.054Z,0.00
2018-08-13T03:59:27.665Z,0.00
2018-08-13T04:00:28.275Z,0.00
2018-08-13T04:01:28.886Z,0.00
2018-08-13T04:02:29.493Z,0.00
2018-08-13T04:03:30.104Z,0.00
2018-08-13T04:04:30.714Z,0.00
2018-08-13T04:05:31.325Z,0.00
2018-08-13T04:06:31.943Z,0.00
2018-08-13T04:07:32.548Z,0.00
2018-08-13T04:08:33.160Z,0.00
2018-08-13T04:09:33.771Z,0.00
2018-08-13T04:10:34.389Z,0.00
2018-08-13T04:11:34.996Z,0.00
2018-08-13T04:12:35.605Z,0.00
2018-08-13T04:13:36.223Z,0.00
2018-08-13T04:14:36.831Z,0.00
2018-08-13T04:15:37.445Z,0.00
2018-08-13T04:16:38.056Z,0.00
2018-08-13T04:17:38.669Z,0.00
2018-08-13T04:18:39.282Z,0.00
2018-08-13T04:19:39.897Z,0.00
2018-08-13T04:20:40.516Z,0.00
2018-08-13T04:21:41.122Z,0.00
2018-08-13T04:22:41.742Z,0.00
2018-08-13T04:23:42.352Z,0.00
2018-08-13T04:24:42.961Z,0.00
2018-08-13T04:25:43.573Z,0.00
2018-08-13T04:26:44.189Z,0.00
2018-08-13T04:27:44.792Z,0.00
2018-08-13T04:28:45.400Z,0.00
2018-08-13T04:29:46.012Z,0.00
2018-08-13T04:30:46.626Z,0.00
2018-08-13T04:31:47.235Z,0.00
2018-08-13T04:32:47.917Z,0.00
2018-08-13T04:33:48.456Z,0.00
2018-08-13T04:34:49.082Z,0.00
2018-08-13T04:34:50.187Z,0.00
2018-08-13T04:36:49.703Z,0.00
2018-08-13T04:37:50.321Z,0.00
2018-08-13T04:38:50.930Z,0.00
2018-08-13T04:39:51.543Z,0.00
2018-08-13T04:40:52.157Z,0.00
2018-08-13T04:41:52.765Z,0.00
2018-08-13T04:42:53.375Z,0.00
2018-08-13T04:43:53.989Z,0.00
2018-08-13T04:44:54.595Z,0.00
2018-08-13T04:45:55.208Z,0.00
2018-08-13T04:46:55.823Z,0.00
2018-08-13T04:47:56.437Z,0.00
2018-08-13T04:48:57.048Z,0.00
2018-08-13T04:49:57.662Z,0.00
2018-08-13T04:50:58.304Z,0.00
2018-08-13T04:51:58.911Z,0.00
2018-08-13T04:52:59.528Z,0.00
2018-08-13T04:54:00.141Z,0.00
2018-08-13T04:55:00.750Z,0.00
2018-08-13T04:56:01.363Z,0.00
2018-08-13T04:57:01.974Z,0.00
2018-08-13T04:58:02.590Z,0.00
2018-08-13T04:59:03.218Z,0.00
2018-08-13T05:00:03.834Z,0.00
2018-08-13T05:01:04.425Z,0.00
2018-08-13T05:02:05.035Z,0.00
2018-08-13T05:03:05.646Z,0.00
2018-08-13T05:04:06.255Z,0.00
2018-08-13T05:05:06.866Z,0.00
2018-08-13T05:06:07.480Z,0.00
2018-08-13T05:07:08.089Z,0.00
2018-08-13T05:08:08.700Z,0.00
2018-08-13T05:09:09.314Z,0.00
2018-08-13T05:10:09.928Z,0.00
2018-08-13T05:11:10.543Z,0.00
2018-08-13T05:12:11.156Z,0.00
2018-08-13T05:13:11.768Z,0.00
2018-08-13T05:14:12.384Z,0.00
2018-08-13T05:15:12.980Z,0.00
2018-08-13T05:16:13.595Z,0.00
2018-08-13T05:17:14.214Z,0.00
2018-08-13T05:18:14.819Z,0.00
2018-08-13T05:19:15.432Z,0.00
2018-08-13T05:20:16.050Z,0.00
2018-08-13T05:21:16.720Z,0.00
2018-08-13T05:22:17.263Z,0.00
2018-08-13T05:23:17.874Z,0.00
2018-08-13T05:24:18.484Z,0.00
2018-08-13T05:25:19.096Z,0.00
2018-08-13T05:26:19.708Z,0.00
2018-08-13T05:27:20.321Z,0.00
2018-08-13T05:28:20.929Z,0.00
2018-08-13T05:29:21.543Z,0.00
2018-08-13T05:30:22.213Z,0.00
2018-08-13T05:31:22.766Z,0.00
2018-08-13T05:32:23.371Z,0.00
2018-08-13T05:33:23.983Z,0.00
2018-08-13T05:34:24.596Z,0.00
2018-08-13T05:35:25.220Z,0.00
2018-08-13T05:36:25.821Z,0.00
2018-08-13T05:37:26.441Z,0.00
2018-08-13T05:38:27.043Z,0.00
2018-08-13T05:39:27.653Z,0.00
2018-08-13T05:40:28.270Z,0.00
2018-08-13T05:41:28.892Z,0.00
2018-08-13T05:42:29.505Z,0.00
2018-08-13T05:43:30.105Z,0.00
2018-08-13T05:44:30.720Z,0.00
2018-08-13T05:45:31.372Z,0.00
2018-08-13T05:46:31.970Z,0.00
2018-08-13T05:46:33.081Z,0.00
2018-08-13T05:48:32.598Z,0.00
2018-08-13T05:49:33.212Z,0.00
2018-08-13T05:50:33.833Z,0.00
2018-08-13T05:51:34.445Z,0.00
2018-08-13T05:52:35.080Z,0.00
2018-08-13T05:53:35.680Z,0.00
2018-08-13T05:54:36.293Z,0.00
2018-08-13T05:55:36.902Z,0.00
2018-08-13T05:56:37.513Z,0.00
2018-08-13T05:57:38.132Z,0.00
2018-08-13T05:58:38.740Z,0.00
2018-08-13T05:59:39.354Z,0.00
2018-08-13T06:00:39.961Z,0.00
2018-08-13T06:01:40.574Z,0.00
2018-08-13T06:02:41.185Z,0.00
2018-08-13T06:03:41.805Z,0.00
2018-08-13T06:04:42.423Z,0.00
2018-08-13T06:05:43.040Z,0.00
2018-08-13T06:06:43.643Z,0.00
2018-08-13T06:07:44.274Z,0.00
2018-08-13T06:08:44.885Z,0.00
2018-08-13T06:09:45.543Z,0.00
2018-08-13T06:10:46.140Z,0.00
2018-08-13T06:11:46.766Z,5.63
2018-08-13T06:12:47.379Z,5.63
2018-08-13T06:13:47.992Z,5.63
2018-08-13T06:14:48.604Z,5.63
2018-08-13T06:15:49.243Z,5.63
2018-08-13T06:16:49.852Z,5.63
2018-08-13T06:17:50.466Z,5.63
2018-08-13T06:18:51.085Z,11.25
2018-08-13T06:19:51.711Z,11.25
2018-08-13T06:20:52.320Z,11.25
2018-08-13T06:21:52.940Z,11.25
2018-08-13T06:22:53.573Z,11.25
2018-08-13T06:23:54.164Z,5.63
2018-08-13T06:24:54.780Z,5.63
2018-08-13T06:25:55.396Z,5.63
2018-08-13T06:26:56.011Z,5.63
2018-08-13T06:27:56.628Z,5.63
2018-08-13T06:28:57.240Z,5.63
2018-08-13T06:29:57.887Z,5.63
2018-08-13T06:30:58.513Z,5.63
2018-08-13T06:31:59.127Z,5.63
2018-08-13T06:32:59.740Z,5.63
2018-08-13T06:34:00.407Z,0.00
2018-08-13T06:35:00.948Z,0.00
2018-08-13T06:36:01.558Z,0.00
2018-08-13T06:37:02.169Z,0.00
2018-08-13T06:38:02.791Z,0.00
2018-08-13T06:39:03.400Z,5.63
2018-08-13T06:40:04.013Z,5.63
2018-08-13T06:41:04.624Z,5.63
2018-08-13T06:42:05.325Z,5.63
2018-08-13T06:43:05.963Z,5.63
2018-08-13T06:44:06.556Z,5.63
2018-08-13T06:45:07.177Z,5.63
2018-08-13T06:46:07.801Z,5.63
2018-08-13T06:47:08.419Z,5.63
2018-08-13T06:48:09.012Z,5.63
2018-08-13T06:49:09.629Z,5.63
2018-08-13T06:50:10.244Z,5.63
2018-08-13T06:51:10.872Z,5.63
2018-08-13T06:52:11.506Z,5.63
2018-08-13T06:53:12.104Z,5.63
2018-08-13T06:54:12.718Z,5.63
2018-08-13T06:55:13.329Z,11.25
2018-08-13T06:56:13.940Z,11.25
2018-08-13T06:57:14.561Z,11.25
2018-08-13T06:58:15.179Z,11.25
2018-08-13T06:58:16.287Z,11.25
2018-08-13T07:00:15.803Z,11.25
2018-08-13T07:01:16.420Z,11.25
2018-08-13T07:02:17.061Z,11.25
2018-08-13T07:03:17.665Z,11.25
2018-08-13T07:04:18.294Z,11.25
2018-08-13T07:05:18.917Z,11.25
2018-08-13T07:06:19.624Z,5.63
2018-08-13T07:07:20.209Z,5.63
2018-08-13T07:08:20.825Z,5.63
2018-08-13T07:09:21.479Z,0.00
2018-08-13T07:10:22.068Z,0.00
2018-08-13T07:11:22.680Z,0.00
2018-08-13T07:12:23.302Z,0.00
2018-08-13T07:13:23.927Z,5.63
2018-08-13T07:14:24.543Z,5.63
2018-08-13T07:15:25.207Z,5.63
2018-08-13T07:16:25.766Z,5.63
2018-08-13T07:17:26.394Z,5.63
2018-08-13T07:18:26.993Z,5.63
2018-08-13T07:19:27.625Z,5.63
2018-08-13T07:20:28.239Z,5.63
2018-08-13T07:21:28.849Z,5.63
2018-08-13T07:22:29.555Z,5.63
2018-08-13T07:23:30.099Z,5.63
2018-08-13T07:24:30.708Z,5.63
2018-08-13T07:25:31.335Z,5.63
2018-08-13T07:26:31.975Z,5.63
2018-08-13T07:27:32.627Z,5.63
2018-08-13T07:28:33.187Z,5.63
2018-08-13T07:29:33.811Z,5.63
2018-08-13T07:30:34.436Z,5.63
2018-08-13T07:31:35.072Z,5.63
2018-08-13T07:32:35.669Z,11.25
2018-08-13T07:33:36.347Z,11.25
2018-08-13T07:34:36.923Z,11.25
2018-08-13T07:35:37.605Z,11.25
2018-08-13T07:36:38.183Z,11.25
2018-08-13T07:37:38.808Z,11.25
2018-08-13T07:38:39.422Z,11.25
2018-08-13T07:39:40.057Z,11.25
2018-08-13T07:40:40.662Z,16.88
2018-08-13T07:41:41.272Z,16.88
2018-08-13T07:42:42.683Z,16.88
2018-08-13T07:43:43.315Z,16.88
2018-08-13T07:44:43.937Z,16.88
2018-08-13T07:45:44.675Z,16.88
2018-08-13T07:46:45.202Z,16.88
2018-08-13T07:47:45.840Z,16.88
2018-08-13T07:48:46.610Z,16.88
2018-08-13T07:49:47.281Z,16.88
2018-08-13T07:50:47.836Z,16.88
2018-08-13T07:51:48.562Z,16.88
2018-08-13T07:52:49.087Z,16.88
2018-08-13T07:53:49.702Z,16.88
2018-08-13T07:54:50.322Z,16.88
2018-08-13T07:55:50.951Z,16.88
2018-08-13T07:56:51.566Z,16.88
2018-08-13T07:57:52.183Z,16.88
2018-08-13T07:58:52.806Z,16.88
2018-08-13T07:59:53.439Z,16.88
2018-08-13T08:00:54.048Z,16.88
2018-08-13T08:01:54.684Z,16.88
2018-08-13T08:02:55.298Z,16.88
2018-08-13T08:03:55.912Z,16.88
2018-08-13T08:04:56.532Z,16.88
2018-08-13T08:05:57.148Z,16.88
2018-08-13T08:06:57.760Z,16.88
2018-08-13T08:07:58.387Z,16.88
2018-08-13T08:08:59.026Z,16.88
2018-08-13T08:09:00.150Z,16.88
2018-08-13T08:10:59.638Z,16.88
2018-08-13T08:12:00.258Z,16.88
2018-08-13T08:13:00.877Z,16.88
2018-08-13T08:14:01.531Z,16.88
2018-08-13T08:15:02.125Z,16.88
2018-08-13T08:16:02.734Z,22.50
2018-08-13T08:17:03.354Z,22.50
2018-08-13T08:18:03.977Z,22.50
2018-08-13T08:19:04.605Z,22.50
2018-08-13T08:20:05.227Z,22.50
2018-08-13T08:21:05.848Z,16.88
2018-08-13T08:22:06.355Z,16.88
2018-08-13T08:23:06.977Z,16.88
2018-08-13T08:24:07.604Z,16.88
2018-08-13T08:25:08.218Z,16.88
2018-08-13T08:26:08.833Z,16.88
2018-08-13T08:27:09.450Z,16.88
2018-08-13T08:28:10.080Z,16.88
2018-08-13T08:29:10.716Z,16.88
2018-08-13T08:30:11.389Z,16.88
2018-08-13T08:31:11.953Z,16.88
2018-08-13T08:32:12.599Z,11.25
2018-08-13T08:33:13.193Z,11.25
2018-08-13T08:34:13.830Z,16.88
2018-08-13T08:35:14.453Z,16.88
2018-08-13T08:36:15.066Z,16.88
2018-08-13T08:37:15.679Z,16.88
2018-08-13T08:38:16.300Z,22.50
2018-08-13T08:39:16.910Z,22.50
2018-08-13T08:40:17.541Z,22.50
2018-08-13T08:41:18.168Z,22.50
2018-08-13T08:42:18.830Z,22.50
2018-08-13T08:43:19.462Z,22.50
2018-08-13T08:44:20.099Z,16.88
2018-08-13T08:45:20.741Z,16.88
2018-08-13T08:46:21.368Z,22.50
2018-08-13T08:47:21.986Z,16.88
2018-08-13T08:48:22.618Z,16.88
2018-08-13T08:49:23.217Z,16.88
2018-08-13T08:50:23.847Z,16.88
2018-08-13T08:51:24.455Z,16.88
2018-08-13T08:52:25.072Z,16.88
2018-08-13T08:53:25.692Z,16.88
2018-08-13T08:54:26.302Z,16.88
2018-08-13T08:55:26.922Z,16.88
2018-08-13T08:56:27.540Z,16.88
2018-08-13T08:57:28.171Z,16.88
2018-08-13T08:58:28.798Z,16.88
2018-08-13T08:59:29.415Z,11.25
2018-08-13T09:00:30.045Z,11.25
2018-08-13T09:01:30.659Z,11.25
2018-08-13T09:02:31.269Z,11.25
2018-08-13T09:03:31.886Z,16.88
2018-08-13T09:04:32.495Z,16.88
2018-08-13T09:05:33.121Z,16.88
2018-08-13T09:06:33.725Z,16.88
2018-08-13T09:07:34.348Z,16.88
2018-08-13T09:08:34.974Z,16.88
2018-08-13T09:09:35.610Z,11.25
2018-08-13T09:10:36.263Z,11.25
2018-08-13T09:11:36.874Z,11.25
2018-08-13T09:12:37.521Z,11.25
2018-08-13T09:13:38.159Z,16.88
2018-08-13T09:14:38.789Z,16.88
2018-08-13T09:15:39.426Z,16.88
2018-08-13T09:16:40.061Z,16.88
2018-08-13T09:17:40.708Z,16.88
2018-08-13T09:18:41.374Z,16.88
2018-08-13T09:19:41.994Z,11.25
2018-08-13T09:20:42.611Z,11.25
2018-08-13T09:20:43.720Z,11.25
2018-08-13T09:22:43.269Z,11.25
2018-08-13T09:23:43.914Z,11.25
2018-08-13T09:24:44.555Z,11.25
2018-08-13T09:25:45.191Z,11.25
2018-08-13T09:26:45.816Z,16.88
2018-08-13T09:27:46.474Z,22.50
2018-08-13T09:28:47.089Z,16.88
2018-08-13T09:29:47.724Z,11.25
2018-08-13T09:30:48.467Z,11.25
2018-08-13T09:31:49.079Z,11.25
2018-08-13T09:32:49.695Z,11.25
2018-08-13T09:33:50.314Z,11.25
2018-08-13T09:34:50.952Z,11.25
2018-08-13T09:35:51.572Z,11.25
2018-08-13T09:36:52.201Z,11.25
2018-08-13T09:37:52.849Z,11.25
2018-08-13T09:38:53.474Z,11.25
2018-08-13T09:39:54.179Z,16.88
2018-08-13T09:40:54.720Z,16.88
2018-08-13T09:41:55.318Z,16.88
2018-08-13T09:42:55.936Z,16.88
2018-08-13T09:43:56.560Z,16.88
2018-08-13T09:44:58.738Z,16.88
2018-08-13T09:45:59.396Z,11.25
2018-08-13T09:47:00.014Z,11.25
2018-08-13T09:48:00.660Z,11.25
2018-08-13T09:49:01.263Z,11.25
2018-08-13T09:50:01.882Z,16.88
2018-08-13T09:51:02.493Z,16.88
2018-08-13T09:52:03.191Z,22.50
2018-08-13T09:53:03.760Z,22.50
2018-08-13T09:54:04.375Z,22.50
2018-08-13T09:55:04.996Z,28.13
2018-08-13T09:56:05.616Z,22.50
2018-08-13T09:57:06.227Z,28.13
2018-08-13T09:58:06.850Z,33.75
2018-08-13T09:59:07.471Z,28.13
2018-08-13T10:00:08.102Z,28.13
2018-08-13T10:01:08.717Z,28.13
2018-08-13T10:02:09.368Z,28.13
2018-08-13T10:03:09.985Z,22.50
2018-08-13T10:04:10.620Z,16.88
2018-08-13T10:05:11.266Z,11.25
2018-08-13T10:06:11.902Z,11.25
2018-08-13T10:07:12.525Z,11.25
2018-08-13T10:08:13.185Z,16.88
2018-08-13T10:09:13.862Z,16.88
2018-08-13T10:10:14.435Z,22.50
2018-08-13T10:11:15.050Z,28.13
2018-08-13T10:12:15.671Z,28.13
2018-08-13T10:13:16.285Z,28.13
2018-08-13T10:14:16.978Z,33.75
2018-08-13T10:15:17.536Z,39.38
2018-08-13T10:16:18.155Z,50.63
2018-08-13T10:17:18.774Z,39.38
2018-08-13T10:18:19.413Z,50.63
2018-08-13T10:19:20.039Z,45.00
2018-08-13T10:20:20.651Z,39.38
2018-08-13T10:21:21.282Z,39.38
2018-08-13T10:22:21.896Z,33.75
2018-08-13T10:23:22.522Z,22.50
2018-08-13T10:24:23.153Z,39.38
2018-08-13T10:25:23.768Z,22.50
2018-08-13T10:26:24.408Z,22.50
2018-08-13T10:27:25.040Z,22.50
2018-08-13T10:28:25.670Z,33.75
2018-08-13T10:29:26.381Z,22.50
2018-08-13T10:30:26.984Z,22.50
2018-08-13T10:31:27.594Z,28.13
2018-08-13T10:32:28.217Z,22.50
2018-08-13T10:32:29.331Z,33.75
2018-08-13T10:34:28.863Z,33.75
2018-08-13T10:35:29.496Z,33.75
2018-08-13T10:36:30.119Z,39.38
2018-08-13T10:37:30.770Z,28.13
2018-08-13T10:38:31.376Z,45.00
2018-08-13T10:39:32.040Z,33.75
2018-08-13T10:40:32.619Z,39.38
2018-08-13T10:41:33.245Z,33.75
2018-08-13T10:42:33.878Z,33.75
2018-08-13T10:43:34.605Z,33.75
2018-08-13T10:44:35.149Z,28.13
2018-08-13T10:45:35.801Z,28.13
2018-08-13T10:46:36.425Z,33.75
2018-08-13T10:47:37.052Z,50.63
2018-08-13T10:48:37.674Z,45.00
2018-08-13T10:49:38.363Z,33.75
2018-08-13T10:50:38.932Z,22.50
2018-08-13T10:51:39.602Z,28.13
2018-08-13T10:52:40.189Z,28.13
2018-08-13T10:53:40.799Z,33.75
2018-08-13T10:54:41.421Z,28.13
2018-08-13T10:55:42.040Z,28.13
2018-08-13T10:56:42.707Z,39.38
2018-08-13T10:57:43.329Z,39.38
2018-08-13T10:58:43.951Z,28.13
2018-08-13T10:59:44.579Z,33.75
2018-08-13T11:00:45.195Z,28.13
2018-08-13T11:01:45.821Z,33.75
2018-08-13T11:02:46.475Z,33.75
2018-08-13T11:03:47.091Z,28.13
2018-08-13T11:04:47.741Z,28.13
2018-08-13T11:05:48.338Z,28.13
2018-08-13T11:06:48.998Z,22.50
2018-08-13T11:07:49.632Z,22.50
2018-08-13T11:08:50.271Z,16.88
2018-08-13T11:09:50.916Z,16.88
2018-08-13T11:10:51.545Z,16.88
2018-08-13T11:11:52.195Z,22.50
2018-08-13T11:12:52.815Z,22.50
2018-08-13T11:13:53.445Z,28.13
2018-08-13T11:14:54.052Z,33.75
2018-08-13T11:15:54.675Z,45.00
2018-08-13T11:16:55.290Z,67.50
2018-08-13T11:17:55.958Z,67.50
2018-08-13T11:18:56.727Z,56.25
2018-08-13T11:19:57.302Z,56.25
2018-08-13T11:20:58.276Z,45.00
2018-08-13T11:21:58.958Z,39.38
2018-08-13T11:22:59.597Z,39.38
2018-08-13T11:24:00.229Z,39.38
2018-08-13T11:25:01.125Z,39.38
2018-08-13T11:26:01.718Z,45.00
2018-08-13T11:27:02.378Z,50.63
2018-08-13T11:28:02.986Z,50.63
2018-08-13T11:29:03.608Z,45.00
2018-08-13T11:30:04.251Z,50.63
2018-08-13T11:31:04.933Z,45.00
2018-08-13T11:32:05.518Z,45.00
2018-08-13T11:33:06.159Z,45.00
2018-08-13T11:34:06.790Z,45.00
2018-08-13T11:35:07.481Z,50.63
2018-08-13T11:36:08.110Z,39.38
2018-08-13T11:37:08.734Z,39.38
2018-08-13T11:38:09.364Z,39.38
2018-08-13T11:39:09.999Z,28.13
2018-08-13T11:40:10.622Z,39.38
2018-08-13T11:41:11.274Z,39.38
2018-08-13T11:42:11.936Z,39.38
2018-08-13T11:43:12.560Z,28.13
2018-08-13T11:44:13.201Z,33.75
2018-08-13T11:44:14.294Z,45.00
2018-08-13T11:46:13.876Z,61.88
2018-08-13T11:47:14.491Z,50.63
2018-08-13T11:48:15.114Z,45.00
2018-08-13T11:49:15.786Z,39.38
2018-08-13T11:50:16.403Z,33.75
2018-08-13T11:51:17.035Z,39.38
2018-08-13T11:52:17.659Z,50.63
2018-08-13T11:53:18.295Z,56.25
2018-08-13T11:54:18.941Z,50.63
2018-08-13T11:55:19.602Z,45.00
2018-08-13T11:56:20.259Z,39.38
2018-08-13T11:57:20.869Z,67.50
2018-08-13T11:58:21.490Z,67.50
2018-08-13T11:59:22.136Z,33.75
2018-08-13T12:00:22.756Z,39.38
2018-08-13T12:01:23.406Z,45.00
2018-08-13T12:02:24.035Z,45.00
2018-08-13T12:03:24.682Z,45.00
2018-08-13T12:04:25.311Z,39.38
2018-08-13T12:05:25.937Z,45.00
2018-08-13T12:06:26.561Z,67.50
2018-08-13T12:07:27.221Z,50.63
2018-08-13T12:08:27.927Z,45.00
2018-08-13T12:09:28.504Z,39.38
2018-08-13T12:10:29.166Z,28.13
2018-08-13T12:11:29.748Z,22.50
2018-08-13T12:12:30.376Z,11.25
2018-08-13T12:13:31.026Z,11.25
2018-08-13T12:14:31.664Z,16.88
2018-08-13T12:15:32.291Z,33.75
2018-08-13T12:16:32.978Z,33.75
2018-08-13T12:17:33.567Z,33.75
2018-08-13T12:18:34.231Z,33.75
2018-08-13T12:19:34.865Z,28.13
2018-08-13T12:20:35.478Z,28.13
2018-08-13T12:21:36.120Z,28.13
2018-08-13T12:22:36.751Z,33.75
2018-08-13T12:23:37.371Z,45.00
2018-08-13T12:24:37.997Z,45.00
2018-08-13T12:25:38.687Z,39.38
2018-08-13T12:26:39.278Z,39.38
2018-08-13T12:27:39.915Z,45.00
2018-08-13T12:28:40.532Z,39.38
2018-08-13T12:29:41.168Z,39.38
2018-08-13T12:30:41.775Z,39.38
2018-08-13T12:31:42.404Z,33.75
2018-08-13T12:32:43.025Z,28.13
2018-08-13T12:33:43.660Z,22.50
2018-08-13T12:34:44.279Z,22.50
2018-08-13T12:35:44.892Z,22.50
2018-08-13T12:36:45.514Z,28.13
2018-08-13T12:37:46.142Z,33.75
2018-08-13T12:38:46.761Z,33.75
2018-08-13T12:39:47.394Z,33.75
2018-08-13T12:40:48.047Z,39.38
2018-08-13T12:41:48.678Z,50.63
2018-08-13T12:42:49.329Z,45.00
2018-08-13T12:43:49.943Z,33.75
2018-08-13T12:44:50.574Z,28.13
2018-08-13T12:45:51.195Z,22.50
2018-08-13T12:46:51.807Z,16.88
2018-08-13T12:47:52.437Z,22.50
2018-08-13T12:48:53.064Z,22.50
2018-08-13T12:49:53.698Z,28.13
2018-08-13T12:50:54.367Z,33.75
2018-08-13T12:51:54.977Z,28.13
2018-08-13T12:52:55.620Z,28.13
2018-08-13T12:53:56.252Z,22.50
2018-08-13T12:54:56.883Z,28.13
2018-08-13T12:55:57.512Z,33.75
2018-08-13T12:55:58.642Z,33.75
2018-08-13T12:57:58.167Z,39.38
2018-08-13T12:58:58.785Z,33.75
2018-08-13T12:59:59.407Z,28.13
2018-08-13T13:01:00.033Z,22.50
2018-08-13T13:02:00.665Z,16.88
2018-08-13T13:03:01.293Z,16.88
2018-08-13T13:04:01.921Z,16.88
2018-08-13T13:05:02.613Z,16.88
2018-08-13T13:06:03.190Z,16.88
2018-08-13T13:07:03.816Z,16.88
2018-08-13T13:08:04.453Z,16.88
2018-08-13T13:09:05.094Z,16.88
2018-08-13T13:10:05.683Z,16.88
2018-08-13T13:11:06.291Z,16.88
2018-08-13T13:12:06.910Z,22.50
2018-08-13T13:13:07.539Z,22.50
2018-08-13T13:14:08.130Z,16.88